sensor_id;sensor_type;location;lat;lon;timestamp;P1;durP1;ratioP1;P2;durP2;ratioP2
72791;SDS011;60907;53.268;8.764;2023-07-30T00:01:05;4.40;;;3.75;;
72791;SDS011;60907;53.268;8.764;2023-07-30T00:03:31;5.22;;;3.75;;
72791;SDS011;60907;53.268;8.764;2023-07-30T00:05:56;5.90;;;4.27;;
72791;SDS011;60907;53.268;8.764;2023-07-30T00:08:22;6.75;;;4.40;;
72791;SDS011;60907;53.268;8.764;2023-07-30T00:11:09;6.63;;;4.47;;
72791;SDS011;60907;53.268;8.764;2023-07-30T00:13:36;7.60;;;5.13;;
72791;SDS011;60907;53.268;8.764;2023-07-30T00:16:01;7.47;;;4.10;;
72791;SDS011;60907;53.268;8.764;2023-07-30T00:18:27;8.30;;;5.50;;
72791;SDS011;60907;53.268;8.764;2023-07-30T00:20:52;8.65;;;5.55;;
72791;SDS011;60907;53.268;8.764;2023-07-30T00:23:18;7.30;;;5.13;;
72791;SDS011;60907;53.268;8.764;2023-07-30T00:25:43;8.00;;;5.47;;
72791;SDS011;60907;53.268;8.764;2023-07-30T00:28:08;8.33;;;6.00;;
72791;SDS011;60907;53.268;8.764;2023-07-30T00:30:34;9.57;;;6.00;;
72791;SDS011;60907;53.268;8.764;2023-07-30T00:32:59;8.15;;;6.30;;
72791;SDS011;60907;53.268;8.764;2023-07-30T00:35:25;11.18;;;6.15;;
72791;SDS011;60907;53.268;8.764;2023-07-30T00:37:50;12.52;;;6.35;;
72791;SDS011;60907;53.268;8.764;2023-07-30T00:40:17;12.15;;;6.70;;
72791;SDS011;60907;53.268;8.764;2023-07-30T00:42:42;8.90;;;5.28;;
72791;SDS011;60907;53.268;8.764;2023-07-30T00:45:08;8.77;;;6.35;;
72791;SDS011;60907;53.268;8.764;2023-07-30T00:47:34;12.93;;;6.30;;
72791;SDS011;60907;53.268;8.764;2023-07-30T00:50:00;8.68;;;6.75;;
72791;SDS011;60907;53.268;8.764;2023-07-30T00:52:26;12.55;;;7.25;;
72791;SDS011;60907;53.268;8.764;2023-07-30T00:54:53;9.57;;;6.32;;
72791;SDS011;60907;53.268;8.764;2023-07-30T00:57:19;11.63;;;6.70;;
72791;SDS011;60907;53.268;8.764;2023-07-30T00:59:45;10.63;;;6.57;;
72791;SDS011;60907;53.268;8.764;2023-07-30T01:02:11;10.45;;;7.00;;
72791;SDS011;60907;53.268;8.764;2023-07-30T01:04:37;9.95;;;7.13;;
72791;SDS011;60907;53.268;8.764;2023-07-30T01:07:04;15.20;;;7.05;;
72791;SDS011;60907;53.268;8.764;2023-07-30T01:09:31;10.40;;;6.60;;
72791;SDS011;60907;53.268;8.764;2023-07-30T01:11:56;9.73;;;6.38;;
72791;SDS011;60907;53.268;8.764;2023-07-30T01:14:23;11.00;;;7.03;;
72791;SDS011;60907;53.268;8.764;2023-07-30T01:16:48;9.77;;;6.00;;
72791;SDS011;60907;53.268;8.764;2023-07-30T01:19:14;12.50;;;6.80;;
72791;SDS011;60907;53.268;8.764;2023-07-30T01:21:39;9.73;;;5.97;;
72791;SDS011;60907;53.268;8.764;2023-07-30T01:24:05;10.18;;;6.10;;
72791;SDS011;60907;53.268;8.764;2023-07-30T01:26:32;12.88;;;6.47;;
72791;SDS011;60907;53.268;8.764;2023-07-30T01:29:00;14.88;;;5.97;;
72791;SDS011;60907;53.268;8.764;2023-07-30T01:31:26;13.15;;;6.28;;
72791;SDS011;60907;53.268;8.764;2023-07-30T01:33:53;10.38;;;6.45;;
72791;SDS011;60907;53.268;8.764;2023-07-30T01:36:19;8.75;;;5.75;;
72791;SDS011;60907;53.268;8.764;2023-07-30T01:38:45;9.80;;;6.15;;
72791;SDS011;60907;53.268;8.764;2023-07-30T01:41:12;8.70;;;5.50;;
72791;SDS011;60907;53.268;8.764;2023-07-30T01:43:37;8.93;;;5.70;;
72791;SDS011;60907;53.268;8.764;2023-07-30T01:46:03;10.30;;;5.17;;
72791;SDS011;60907;53.268;8.764;2023-07-30T01:48:28;13.57;;;5.30;;
72791;SDS011;60907;53.268;8.764;2023-07-30T01:50:53;10.37;;;5.57;;
72791;SDS011;60907;53.268;8.764;2023-07-30T01:53:19;10.70;;;5.53;;
72791;SDS011;60907;53.268;8.764;2023-07-30T01:55:44;11.90;;;6.00;;
72791;SDS011;60907;53.268;8.764;2023-07-30T01:58:11;7.90;;;5.25;;
72791;SDS011;60907;53.268;8.764;2023-07-30T02:03:03;7.90;;;4.65;;
72791;SDS011;60907;53.268;8.764;2023-07-30T02:05:29;8.98;;;5.07;;
72791;SDS011;60907;53.268;8.764;2023-07-30T02:07:54;9.30;;;5.03;;
72791;SDS011;60907;53.268;8.764;2023-07-30T02:10:19;10.53;;;5.93;;
72791;SDS011;60907;53.268;8.764;2023-07-30T02:12:45;10.43;;;5.43;;
72791;SDS011;60907;53.268;8.764;2023-07-30T02:15:10;7.53;;;5.13;;
72791;SDS011;60907;53.268;8.764;2023-07-30T02:17:36;12.65;;;4.97;;
72791;SDS011;60907;53.268;8.764;2023-07-30T02:20:01;10.87;;;5.93;;
72791;SDS011;60907;53.268;8.764;2023-07-30T02:22:27;8.88;;;5.82;;
72791;SDS011;60907;53.268;8.764;2023-07-30T02:24:53;11.23;;;5.22;;
72791;SDS011;60907;53.268;8.764;2023-07-30T02:27:18;10.35;;;5.63;;
72791;SDS011;60907;53.268;8.764;2023-07-30T02:29:44;10.93;;;5.93;;
72791;SDS011;60907;53.268;8.764;2023-07-30T02:32:09;9.57;;;5.90;;
72791;SDS011;60907;53.268;8.764;2023-07-30T02:34:34;11.55;;;6.32;;
72791;SDS011;60907;53.268;8.764;2023-07-30T02:37:00;8.38;;;5.53;;
72791;SDS011;60907;53.268;8.764;2023-07-30T02:39:25;10.93;;;5.43;;
72791;SDS011;60907;53.268;8.764;2023-07-30T02:41:51;14.53;;;6.10;;
72791;SDS011;60907;53.268;8.764;2023-07-30T02:44:16;9.37;;;5.63;;
72791;SDS011;60907;53.268;8.764;2023-07-30T02:46:41;11.70;;;5.90;;
72791;SDS011;60907;53.268;8.764;2023-07-30T02:49:07;9.00;;;5.53;;
72791;SDS011;60907;53.268;8.764;2023-07-30T02:51:33;9.90;;;5.47;;
72791;SDS011;60907;53.268;8.764;2023-07-30T02:54:03;13.50;;;6.03;;
72791;SDS011;60907;53.268;8.764;2023-07-30T02:56:29;10.02;;;4.32;;
72791;SDS011;60907;53.268;8.764;2023-07-30T02:58:54;9.13;;;5.03;;
72791;SDS011;60907;53.268;8.764;2023-07-30T03:01:20;14.30;;;6.47;;
72791;SDS011;60907;53.268;8.764;2023-07-30T03:03:45;14.40;;;5.68;;
72791;SDS011;60907;53.268;8.764;2023-07-30T03:06:10;12.00;;;5.17;;
72791;SDS011;60907;53.268;8.764;2023-07-30T03:08:36;10.43;;;4.73;;
72791;SDS011;60907;53.268;8.764;2023-07-30T03:11:02;10.82;;;5.63;;
72791;SDS011;60907;53.268;8.764;2023-07-30T03:13:27;10.02;;;5.80;;
72791;SDS011;60907;53.268;8.764;2023-07-30T03:15:52;10.90;;;5.63;;
72791;SDS011;60907;53.268;8.764;2023-07-30T03:18:18;11.43;;;5.68;;
72791;SDS011;60907;53.268;8.764;2023-07-30T03:20:43;11.50;;;5.38;;
72791;SDS011;60907;53.268;8.764;2023-07-30T03:23:09;10.63;;;5.67;;
72791;SDS011;60907;53.268;8.764;2023-07-30T03:25:34;12.18;;;5.68;;
72791;SDS011;60907;53.268;8.764;2023-07-30T03:28:00;11.93;;;5.57;;
72791;SDS011;60907;53.268;8.764;2023-07-30T03:30:25;11.83;;;5.90;;
72791;SDS011;60907;53.268;8.764;2023-07-30T03:32:50;12.20;;;6.77;;
72791;SDS011;60907;53.268;8.764;2023-07-30T03:35:16;14.47;;;6.27;;
72791;SDS011;60907;53.268;8.764;2023-07-30T03:37:41;11.27;;;5.97;;
72791;SDS011;60907;53.268;8.764;2023-07-30T03:40:07;14.10;;;6.73;;
72791;SDS011;60907;53.268;8.764;2023-07-30T03:42:32;12.20;;;6.20;;
72791;SDS011;60907;53.268;8.764;2023-07-30T03:44:58;13.05;;;6.03;;
72791;SDS011;60907;53.268;8.764;2023-07-30T03:47:23;12.20;;;5.13;;
72791;SDS011;60907;53.268;8.764;2023-07-30T03:49:49;13.38;;;5.72;;
72791;SDS011;60907;53.268;8.764;2023-07-30T03:52:14;15.37;;;6.33;;
72791;SDS011;60907;53.268;8.764;2023-07-30T03:54:39;12.20;;;5.50;;
72791;SDS011;60907;53.268;8.764;2023-07-30T03:57:05;15.23;;;5.63;;
72791;SDS011;60907;53.268;8.764;2023-07-30T03:59:30;14.40;;;5.30;;
72791;SDS011;60907;53.268;8.764;2023-07-30T04:01:55;11.75;;;6.05;;
72791;SDS011;60907;53.268;8.764;2023-07-30T04:04:21;13.80;;;5.53;;
72791;SDS011;60907;53.268;8.764;2023-07-30T04:06:47;17.83;;;5.97;;
72791;SDS011;60907;53.268;8.764;2023-07-30T04:09:12;13.37;;;5.80;;
72791;SDS011;60907;53.268;8.764;2023-07-30T04:11:38;14.88;;;5.95;;
72791;SDS011;60907;53.268;8.764;2023-07-30T04:14:03;14.27;;;6.20;;
72791;SDS011;60907;53.268;8.764;2023-07-30T04:16:30;12.32;;;5.28;;
72791;SDS011;60907;53.268;8.764;2023-07-30T04:18:55;12.77;;;5.40;;
72791;SDS011;60907;53.268;8.764;2023-07-30T04:21:21;14.60;;;5.03;;
72791;SDS011;60907;53.268;8.764;2023-07-30T04:23:46;14.00;;;5.07;;
72791;SDS011;60907;53.268;8.764;2023-07-30T04:26:11;14.02;;;6.05;;
72791;SDS011;60907;53.268;8.764;2023-07-30T04:28:37;21.23;;;5.65;;
72791;SDS011;60907;53.268;8.764;2023-07-30T04:31:02;12.82;;;5.43;;
72791;SDS011;60907;53.268;8.764;2023-07-30T04:33:28;12.15;;;5.57;;
72791;SDS011;60907;53.268;8.764;2023-07-30T04:35:53;14.43;;;5.57;;
72791;SDS011;60907;53.268;8.764;2023-07-30T04:38:19;12.27;;;5.30;;
72791;SDS011;60907;53.268;8.764;2023-07-30T04:40:44;11.23;;;4.47;;
72791;SDS011;60907;53.268;8.764;2023-07-30T04:43:10;11.57;;;5.70;;
72791;SDS011;60907;53.268;8.764;2023-07-30T04:45:35;11.70;;;4.57;;
72791;SDS011;60907;53.268;8.764;2023-07-30T04:48:00;13.68;;;4.03;;
72791;SDS011;60907;53.268;8.764;2023-07-30T04:50:26;13.07;;;4.43;;
72791;SDS011;60907;53.268;8.764;2023-07-30T04:52:51;12.33;;;4.83;;
72791;SDS011;60907;53.268;8.764;2023-07-30T04:55:17;15.82;;;4.25;;
72791;SDS011;60907;53.268;8.764;2023-07-30T04:57:42;13.00;;;4.40;;
72791;SDS011;60907;53.268;8.764;2023-07-30T05:00:07;9.52;;;3.60;;
72791;SDS011;60907;53.268;8.764;2023-07-30T05:02:33;11.45;;;4.28;;
72791;SDS011;60907;53.268;8.764;2023-07-30T05:04:59;10.80;;;4.13;;
72791;SDS011;60907;53.268;8.764;2023-07-30T05:07:24;14.70;;;4.33;;
72791;SDS011;60907;53.268;8.764;2023-07-30T05:09:49;8.00;;;2.85;;
72791;SDS011;60907;53.268;8.764;2023-07-30T05:12:15;8.15;;;3.75;;
72791;SDS011;60907;53.268;8.764;2023-07-30T05:14:40;10.02;;;3.65;;
72791;SDS011;60907;53.268;8.764;2023-07-30T05:17:06;9.88;;;3.67;;
72791;SDS011;60907;53.268;8.764;2023-07-30T05:19:31;10.13;;;3.80;;
72791;SDS011;60907;53.268;8.764;2023-07-30T05:21:57;6.88;;;3.10;;
72791;SDS011;60907;53.268;8.764;2023-07-30T05:24:24;9.27;;;3.30;;
72791;SDS011;60907;53.268;8.764;2023-07-30T05:26:50;8.32;;;3.20;;
72791;SDS011;60907;53.268;8.764;2023-07-30T05:29:15;9.38;;;3.38;;
72791;SDS011;60907;53.268;8.764;2023-07-30T05:31:40;7.95;;;3.30;;
72791;SDS011;60907;53.268;8.764;2023-07-30T05:34:06;11.20;;;3.73;;
72791;SDS011;60907;53.268;8.764;2023-07-30T05:36:31;15.30;;;3.47;;
72791;SDS011;60907;53.268;8.764;2023-07-30T05:38:56;9.13;;;3.17;;
72791;SDS011;60907;53.268;8.764;2023-07-30T05:41:22;8.63;;;3.10;;
72791;SDS011;60907;53.268;8.764;2023-07-30T05:43:47;11.75;;;4.05;;
72791;SDS011;60907;53.268;8.764;2023-07-30T05:46:13;12.90;;;3.78;;
72791;SDS011;60907;53.268;8.764;2023-07-30T05:48:39;8.55;;;3.65;;
72791;SDS011;60907;53.268;8.764;2023-07-30T05:51:04;7.70;;;3.63;;
72791;SDS011;60907;53.268;8.764;2023-07-30T05:53:30;10.60;;;3.85;;
72791;SDS011;60907;53.268;8.764;2023-07-30T05:55:56;9.85;;;2.90;;
72791;SDS011;60907;53.268;8.764;2023-07-30T05:58:21;12.18;;;3.55;;
72791;SDS011;60907;53.268;8.764;2023-07-30T06:00:47;12.52;;;3.08;;
72791;SDS011;60907;53.268;8.764;2023-07-30T06:03:12;8.75;;;2.90;;
72791;SDS011;60907;53.268;8.764;2023-07-30T06:05:41;10.70;;;3.07;;
72791;SDS011;60907;53.268;8.764;2023-07-30T06:08:07;14.30;;;3.42;;
72791;SDS011;60907;53.268;8.764;2023-07-30T06:10:38;11.73;;;2.42;;
72791;SDS011;60907;53.268;8.764;2023-07-30T06:13:05;11.48;;;3.17;;
72791;SDS011;60907;53.268;8.764;2023-07-30T06:15:31;13.00;;;3.85;;
72791;SDS011;60907;53.268;8.764;2023-07-30T06:17:56;12.45;;;4.53;;
72791;SDS011;60907;53.268;8.764;2023-07-30T06:20:22;10.97;;;2.90;;
72791;SDS011;60907;53.268;8.764;2023-07-30T06:22:47;11.83;;;3.33;;
72791;SDS011;60907;53.268;8.764;2023-07-30T06:25:13;9.93;;;3.30;;
72791;SDS011;60907;53.268;8.764;2023-07-30T06:27:38;13.30;;;4.47;;
72791;SDS011;60907;53.268;8.764;2023-07-30T06:30:04;11.25;;;2.80;;
72791;SDS011;60907;53.268;8.764;2023-07-30T06:32:30;8.98;;;3.17;;
72791;SDS011;60907;53.268;8.764;2023-07-30T06:34:55;10.77;;;3.28;;
72791;SDS011;60907;53.268;8.764;2023-07-30T06:37:21;9.77;;;3.40;;
72791;SDS011;60907;53.268;8.764;2023-07-30T06:39:46;13.47;;;3.30;;
72791;SDS011;60907;53.268;8.764;2023-07-30T06:42:11;14.57;;;3.90;;
72791;SDS011;60907;53.268;8.764;2023-07-30T06:44:37;12.75;;;3.65;;
72791;SDS011;60907;53.268;8.764;2023-07-30T06:47:02;13.00;;;4.23;;
72791;SDS011;60907;53.268;8.764;2023-07-30T06:49:28;11.27;;;4.07;;
72791;SDS011;60907;53.268;8.764;2023-07-30T06:51:53;12.30;;;3.42;;
72791;SDS011;60907;53.268;8.764;2023-07-30T06:54:19;10.47;;;4.13;;
72791;SDS011;60907;53.268;8.764;2023-07-30T06:56:45;13.80;;;3.60;;
72791;SDS011;60907;53.268;8.764;2023-07-30T06:59:10;15.20;;;4.17;;
72791;SDS011;60907;53.268;8.764;2023-07-30T07:01:36;9.75;;;4.03;;
72791;SDS011;60907;53.268;8.764;2023-07-30T07:04:01;12.67;;;3.90;;
72791;SDS011;60907;53.268;8.764;2023-07-30T07:06:26;17.07;;;5.03;;
72791;SDS011;60907;53.268;8.764;2023-07-30T07:08:52;10.20;;;3.92;;
72791;SDS011;60907;53.268;8.764;2023-07-30T07:11:17;15.37;;;4.10;;
72791;SDS011;60907;53.268;8.764;2023-07-30T07:13:43;12.00;;;3.80;;
72791;SDS011;60907;53.268;8.764;2023-07-30T07:16:08;13.23;;;4.63;;
72791;SDS011;60907;53.268;8.764;2023-07-30T07:18:33;15.02;;;4.57;;
72791;SDS011;60907;53.268;8.764;2023-07-30T07:20:59;11.98;;;3.78;;
72791;SDS011;60907;53.268;8.764;2023-07-30T07:23:24;10.13;;;3.47;;
72791;SDS011;60907;53.268;8.764;2023-07-30T07:25:51;10.18;;;3.95;;
72791;SDS011;60907;53.268;8.764;2023-07-30T07:28:16;16.10;;;4.10;;
72791;SDS011;60907;53.268;8.764;2023-07-30T07:30:43;14.43;;;4.28;;
72791;SDS011;60907;53.268;8.764;2023-07-30T07:33:09;9.10;;;3.50;;
72791;SDS011;60907;53.268;8.764;2023-07-30T07:35:38;11.82;;;4.15;;
72791;SDS011;60907;53.268;8.764;2023-07-30T07:38:04;13.80;;;3.85;;
72791;SDS011;60907;53.268;8.764;2023-07-30T07:40:29;11.43;;;3.63;;
72791;SDS011;60907;53.268;8.764;2023-07-30T07:42:55;12.18;;;3.58;;
72791;SDS011;60907;53.268;8.764;2023-07-30T07:45:20;11.45;;;3.50;;
72791;SDS011;60907;53.268;8.764;2023-07-30T07:47:46;10.48;;;3.13;;
72791;SDS011;60907;53.268;8.764;2023-07-30T07:50:11;8.70;;;3.03;;
72791;SDS011;60907;53.268;8.764;2023-07-30T07:52:37;14.00;;;3.75;;
72791;SDS011;60907;53.268;8.764;2023-07-30T07:55:03;12.20;;;3.40;;
72791;SDS011;60907;53.268;8.764;2023-07-30T07:59:55;11.45;;;3.83;;
72791;SDS011;60907;53.268;8.764;2023-07-30T08:02:21;12.60;;;3.85;;
72791;SDS011;60907;53.268;8.764;2023-07-30T08:04:46;9.75;;;2.75;;
72791;SDS011;60907;53.268;8.764;2023-07-30T08:07:12;10.50;;;2.95;;
72791;SDS011;60907;53.268;8.764;2023-07-30T08:09:37;13.52;;;3.85;;
72791;SDS011;60907;53.268;8.764;2023-07-30T08:12:02;8.73;;;3.00;;
72791;SDS011;60907;53.268;8.764;2023-07-30T08:14:28;13.85;;;3.03;;
72791;SDS011;60907;53.268;8.764;2023-07-30T08:16:54;11.88;;;2.50;;
72791;SDS011;60907;53.268;8.764;2023-07-30T08:19:20;10.57;;;2.75;;
72791;SDS011;60907;53.268;8.764;2023-07-30T08:21:45;6.10;;;2.17;;
72791;SDS011;60907;53.268;8.764;2023-07-30T08:24:11;4.55;;;2.25;;
72791;SDS011;60907;53.268;8.764;2023-07-30T08:26:36;8.07;;;2.60;;
72791;SDS011;60907;53.268;8.764;2023-07-30T08:29:01;6.73;;;2.70;;
72791;SDS011;60907;53.268;8.764;2023-07-30T08:31:28;11.55;;;3.15;;
72791;SDS011;60907;53.268;8.764;2023-07-30T08:33:53;6.10;;;2.53;;
72791;SDS011;60907;53.268;8.764;2023-07-30T08:36:19;9.40;;;2.97;;
72791;SDS011;60907;53.268;8.764;2023-07-30T08:38:44;6.60;;;1.93;;
72791;SDS011;60907;53.268;8.764;2023-07-30T08:41:09;11.95;;;2.97;;
72791;SDS011;60907;53.268;8.764;2023-07-30T08:43:35;6.20;;;2.22;;
72791;SDS011;60907;53.268;8.764;2023-07-30T08:46:01;6.93;;;2.38;;
72791;SDS011;60907;53.268;8.764;2023-07-30T08:48:27;6.55;;;2.63;;
72791;SDS011;60907;53.268;8.764;2023-07-30T08:50:54;6.40;;;3.00;;
72791;SDS011;60907;53.268;8.764;2023-07-30T08:53:21;10.48;;;2.95;;
72791;SDS011;60907;53.268;8.764;2023-07-30T08:55:49;7.28;;;2.80;;
72791;SDS011;60907;53.268;8.764;2023-07-30T08:58:14;9.68;;;2.90;;
72791;SDS011;60907;53.268;8.764;2023-07-30T09:00:42;6.00;;;2.42;;
72791;SDS011;60907;53.268;8.764;2023-07-30T09:03:07;4.45;;;2.22;;
72791;SDS011;60907;53.268;8.764;2023-07-30T09:05:33;9.35;;;2.65;;
72791;SDS011;60907;53.268;8.764;2023-07-30T09:07:59;11.37;;;3.10;;
72791;SDS011;60907;53.268;8.764;2023-07-30T09:10:25;7.32;;;2.90;;
72791;SDS011;60907;53.268;8.764;2023-07-30T09:12:55;5.95;;;2.85;;
72791;SDS011;60907;53.268;8.764;2023-07-30T09:15:35;8.77;;;3.53;;
72791;SDS011;60907;53.268;8.764;2023-07-30T09:18:05;6.72;;;3.47;;
72791;SDS011;60907;53.268;8.764;2023-07-30T09:20:37;9.85;;;2.95;;
72791;SDS011;60907;53.268;8.764;2023-07-30T09:23:04;9.85;;;3.25;;
72791;SDS011;60907;53.268;8.764;2023-07-30T09:25:30;15.68;;;4.45;;
72791;SDS011;60907;53.268;8.764;2023-07-30T09:27:55;8.93;;;3.60;;
72791;SDS011;60907;53.268;8.764;2023-07-30T09:30:25;10.00;;;3.65;;
72791;SDS011;60907;53.268;8.764;2023-07-30T09:32:52;9.77;;;3.80;;
72791;SDS011;60907;53.268;8.764;2023-07-30T09:35:18;8.15;;;3.58;;
72791;SDS011;60907;53.268;8.764;2023-07-30T09:37:43;14.43;;;4.55;;
72791;SDS011;60907;53.268;8.764;2023-07-30T09:40:10;14.93;;;4.03;;
72791;SDS011;60907;53.268;8.764;2023-07-30T09:42:38;8.82;;;5.15;;
72791;SDS011;60907;53.268;8.764;2023-07-30T09:45:05;13.23;;;3.92;;
72791;SDS011;60907;53.268;8.764;2023-07-30T09:47:36;9.60;;;4.47;;
72791;SDS011;60907;53.268;8.764;2023-07-30T09:50:02;11.52;;;4.03;;
72791;SDS011;60907;53.268;8.764;2023-07-30T09:52:29;9.85;;;3.65;;
72791;SDS011;60907;53.268;8.764;2023-07-30T09:54:55;9.80;;;3.70;;
72791;SDS011;60907;53.268;8.764;2023-07-30T09:57:22;12.25;;;4.68;;
72791;SDS011;60907;53.268;8.764;2023-07-30T09:59:47;9.00;;;3.93;;
72791;SDS011;60907;53.268;8.764;2023-07-30T10:02:13;7.57;;;3.40;;
72791;SDS011;60907;53.268;8.764;2023-07-30T10:04:39;8.30;;;3.35;;
72791;SDS011;60907;53.268;8.764;2023-07-30T10:07:09;7.43;;;3.60;;
72791;SDS011;60907;53.268;8.764;2023-07-30T10:09:39;15.77;;;4.13;;
72791;SDS011;60907;53.268;8.764;2023-07-30T10:12:18;11.45;;;4.00;;
72791;SDS011;60907;53.268;8.764;2023-07-30T10:14:46;8.38;;;3.42;;
72791;SDS011;60907;53.268;8.764;2023-07-30T10:17:12;10.88;;;3.30;;
72791;SDS011;60907;53.268;8.764;2023-07-30T10:19:37;14.10;;;3.13;;
72791;SDS011;60907;53.268;8.764;2023-07-30T10:24:37;6.25;;;2.75;;
72791;SDS011;60907;53.268;8.764;2023-07-30T10:27:07;7.45;;;2.67;;
72791;SDS011;60907;53.268;8.764;2023-07-30T10:29:36;9.88;;;3.58;;
72791;SDS011;60907;53.268;8.764;2023-07-30T10:32:03;5.15;;;2.25;;
72791;SDS011;60907;53.268;8.764;2023-07-30T10:34:44;9.02;;;2.50;;
72791;SDS011;60907;53.268;8.764;2023-07-30T10:37:11;6.40;;;2.53;;
72791;SDS011;60907;53.268;8.764;2023-07-30T10:39:43;6.75;;;3.40;;
72791;SDS011;60907;53.268;8.764;2023-07-30T10:42:08;7.20;;;2.65;;
72791;SDS011;60907;53.268;8.764;2023-07-30T10:44:34;8.02;;;2.38;;
72791;SDS011;60907;53.268;8.764;2023-07-30T10:47:00;4.93;;;2.08;;
72791;SDS011;60907;53.268;8.764;2023-07-30T10:51:52;8.32;;;2.25;;
72791;SDS011;60907;53.268;8.764;2023-07-30T10:54:19;7.03;;;2.05;;
72791;SDS011;60907;53.268;8.764;2023-07-30T10:56:44;4.22;;;1.73;;
72791;SDS011;60907;53.268;8.764;2023-07-30T10:59:11;4.40;;;1.80;;
72791;SDS011;60907;53.268;8.764;2023-07-30T11:01:38;7.68;;;1.65;;
72791;SDS011;60907;53.268;8.764;2023-07-30T11:04:08;6.55;;;1.98;;
72791;SDS011;60907;53.268;8.764;2023-07-30T11:06:44;4.93;;;2.08;;
72791;SDS011;60907;53.268;8.764;2023-07-30T11:09:21;2.47;;;1.30;;
72791;SDS011;60907;53.268;8.764;2023-07-30T11:11:48;7.10;;;2.75;;
72791;SDS011;60907;53.268;8.764;2023-07-30T11:14:17;4.40;;;2.20;;
72791;SDS011;60907;53.268;8.764;2023-07-30T11:16:58;4.03;;;1.70;;
72791;SDS011;60907;53.268;8.764;2023-07-30T11:19:24;6.22;;;2.00;;
72791;SDS011;60907;53.268;8.764;2023-07-30T11:21:51;11.55;;;2.03;;
72791;SDS011;60907;53.268;8.764;2023-07-30T11:24:18;5.40;;;2.00;;
72791;SDS011;60907;53.268;8.764;2023-07-30T11:26:44;5.78;;;2.40;;
72791;SDS011;60907;53.268;8.764;2023-07-30T11:29:14;10.05;;;2.88;;
72791;SDS011;60907;53.268;8.764;2023-07-30T11:31:40;5.43;;;2.10;;
72791;SDS011;60907;53.268;8.764;2023-07-30T11:34:06;6.03;;;2.45;;
72791;SDS011;60907;53.268;8.764;2023-07-30T11:36:32;6.55;;;2.08;;
72791;SDS011;60907;53.268;8.764;2023-07-30T11:38:57;6.93;;;2.30;;
72791;SDS011;60907;53.268;8.764;2023-07-30T11:41:23;6.20;;;2.40;;
72791;SDS011;60907;53.268;8.764;2023-07-30T11:43:49;7.95;;;2.38;;
72791;SDS011;60907;53.268;8.764;2023-07-30T11:46:15;3.63;;;1.60;;
72791;SDS011;60907;53.268;8.764;2023-07-30T11:48:43;5.22;;;1.23;;
72791;SDS011;60907;53.268;8.764;2023-07-30T11:51:26;3.83;;;1.48;;
72791;SDS011;60907;53.268;8.764;2023-07-30T11:53:56;4.50;;;1.55;;
72791;SDS011;60907;53.268;8.764;2023-07-30T11:56:23;3.85;;;1.42;;
72791;SDS011;60907;53.268;8.764;2023-07-30T11:58:51;6.13;;;1.70;;
72791;SDS011;60907;53.268;8.764;2023-07-30T12:01:18;5.88;;;1.33;;
72791;SDS011;60907;53.268;8.764;2023-07-30T12:03:44;6.60;;;1.38;;
72791;SDS011;60907;53.268;8.764;2023-07-30T12:06:10;2.90;;;1.10;;
72791;SDS011;60907;53.268;8.764;2023-07-30T12:08:36;6.30;;;1.20;;
72791;SDS011;60907;53.268;8.764;2023-07-30T12:11:02;2.95;;;1.23;;
72791;SDS011;60907;53.268;8.764;2023-07-30T12:13:28;3.33;;;0.85;;
72791;SDS011;60907;53.268;8.764;2023-07-30T12:15:54;2.50;;;0.63;;
72791;SDS011;60907;53.268;8.764;2023-07-30T12:18:20;1.92;;;1.00;;
72791;SDS011;60907;53.268;8.764;2023-07-30T12:20:47;4.13;;;1.33;;
72791;SDS011;60907;53.268;8.764;2023-07-30T12:23:13;2.85;;;0.90;;
72791;SDS011;60907;53.268;8.764;2023-07-30T12:25:39;2.85;;;1.05;;
72791;SDS011;60907;53.268;8.764;2023-07-30T12:28:04;4.03;;;1.15;;
72791;SDS011;60907;53.268;8.764;2023-07-30T12:30:30;4.30;;;1.10;;
72791;SDS011;60907;53.268;8.764;2023-07-30T12:32:56;3.65;;;1.20;;
72791;SDS011;60907;53.268;8.764;2023-07-30T12:35:21;2.83;;;1.25;;
72791;SDS011;60907;53.268;8.764;2023-07-30T12:37:47;3.53;;;0.98;;
72791;SDS011;60907;53.268;8.764;2023-07-30T12:40:12;4.35;;;1.30;;
72791;SDS011;60907;53.268;8.764;2023-07-30T12:42:38;3.53;;;1.13;;
72791;SDS011;60907;53.268;8.764;2023-07-30T12:45:03;3.37;;;1.00;;
72791;SDS011;60907;53.268;8.764;2023-07-30T12:47:29;4.30;;;1.30;;
72791;SDS011;60907;53.268;8.764;2023-07-30T12:49:54;2.97;;;1.07;;
72791;SDS011;60907;53.268;8.764;2023-07-30T12:52:20;3.80;;;1.97;;
72791;SDS011;60907;53.268;8.764;2023-07-30T12:54:45;2.87;;;1.13;;
72791;SDS011;60907;53.268;8.764;2023-07-30T12:57:11;5.00;;;1.27;;
72791;SDS011;60907;53.268;8.764;2023-07-30T12:59:36;2.65;;;1.00;;
72791;SDS011;60907;53.268;8.764;2023-07-30T13:02:03;6.40;;;1.45;;
72791;SDS011;60907;53.268;8.764;2023-07-30T13:04:28;4.15;;;1.45;;
72791;SDS011;60907;53.268;8.764;2023-07-30T13:06:54;4.13;;;1.13;;
72791;SDS011;60907;53.268;8.764;2023-07-30T13:09:19;1.80;;;0.90;;
72791;SDS011;60907;53.268;8.764;2023-07-30T13:11:44;3.03;;;1.05;;
72791;SDS011;60907;53.268;8.764;2023-07-30T13:14:10;3.33;;;1.40;;
72791;SDS011;60907;53.268;8.764;2023-07-30T13:16:36;3.60;;;1.23;;
72791;SDS011;60907;53.268;8.764;2023-07-30T13:19:01;3.08;;;1.67;;
72791;SDS011;60907;53.268;8.764;2023-07-30T13:21:27;3.08;;;2.05;;
72791;SDS011;60907;53.268;8.764;2023-07-30T13:23:52;3.80;;;1.33;;
72791;SDS011;60907;53.268;8.764;2023-07-30T13:26:17;3.03;;;1.37;;
72791;SDS011;60907;53.268;8.764;2023-07-30T13:28:44;3.85;;;1.23;;
72791;SDS011;60907;53.268;8.764;2023-07-30T13:31:09;6.03;;;1.50;;
72791;SDS011;60907;53.268;8.764;2023-07-30T13:33:35;4.60;;;1.90;;
72791;SDS011;60907;53.268;8.764;2023-07-30T13:36:01;3.95;;;1.48;;
72791;SDS011;60907;53.268;8.764;2023-07-30T13:38:27;4.38;;;1.15;;
72791;SDS011;60907;53.268;8.764;2023-07-30T13:40:52;3.47;;;1.30;;
72791;SDS011;60907;53.268;8.764;2023-07-30T13:43:18;2.20;;;1.35;;
72791;SDS011;60907;53.268;8.764;2023-07-30T13:45:43;4.97;;;1.13;;
72791;SDS011;60907;53.268;8.764;2023-07-30T13:48:09;3.33;;;1.20;;
72791;SDS011;60907;53.268;8.764;2023-07-30T13:50:34;2.90;;;1.30;;
72791;SDS011;60907;53.268;8.764;2023-07-30T13:53:00;3.45;;;1.13;;
72791;SDS011;60907;53.268;8.764;2023-07-30T13:55:25;4.15;;;1.30;;
72791;SDS011;60907;53.268;8.764;2023-07-30T13:57:51;4.57;;;1.50;;
72791;SDS011;60907;53.268;8.764;2023-07-30T14:00:16;4.57;;;1.50;;
72791;SDS011;60907;53.268;8.764;2023-07-30T14:02:42;5.00;;;1.80;;
72791;SDS011;60907;53.268;8.764;2023-07-30T14:05:08;3.90;;;1.30;;
72791;SDS011;60907;53.268;8.764;2023-07-30T14:07:34;5.25;;;1.50;;
72791;SDS011;60907;53.268;8.764;2023-07-30T14:10:00;3.92;;;1.20;;
72791;SDS011;60907;53.268;8.764;2023-07-30T14:12:25;4.47;;;1.40;;
72791;SDS011;60907;53.268;8.764;2023-07-30T14:14:51;4.50;;;1.88;;
72791;SDS011;60907;53.268;8.764;2023-07-30T14:17:16;3.55;;;1.80;;
72791;SDS011;60907;53.268;8.764;2023-07-30T14:19:42;5.45;;;1.42;;
72791;SDS011;60907;53.268;8.764;2023-07-30T14:22:07;2.92;;;1.10;;
72791;SDS011;60907;53.268;8.764;2023-07-30T14:24:33;4.73;;;1.27;;
72791;SDS011;60907;53.268;8.764;2023-07-30T14:26:59;4.40;;;1.60;;
72791;SDS011;60907;53.268;8.764;2023-07-30T14:29:24;5.83;;;1.40;;
72791;SDS011;60907;53.268;8.764;2023-07-30T14:31:50;3.88;;;1.50;;
72791;SDS011;60907;53.268;8.764;2023-07-30T14:34:15;7.20;;;1.30;;
72791;SDS011;60907;53.268;8.764;2023-07-30T14:36:41;3.38;;;1.38;;
72791;SDS011;60907;53.268;8.764;2023-07-30T14:39:06;3.83;;;1.25;;
72791;SDS011;60907;53.268;8.764;2023-07-30T14:41:32;3.60;;;1.13;;
72791;SDS011;60907;53.268;8.764;2023-07-30T14:43:58;2.90;;;0.77;;